sensor_id;sensor_type;location;lat;lon;timestamp;P1;durP1;ratioP1;P2;durP2;ratioP2
81703;SDS011;71117;52.352;4.808;2023-08-08T00:00:15;6.20;;;3.10;;
81703;SDS011;71117;52.352;4.808;2023-08-08T00:02:40;7.40;;;2.83;;
81703;SDS011;71117;52.352;4.808;2023-08-08T00:05:05;10.65;;;3.40;;
81703;SDS011;71117;52.352;4.808;2023-08-08T00:07:31;9.18;;;3.35;;
81703;SDS011;71117;52.352;4.808;2023-08-08T00:09:57;7.43;;;3.15;;
81703;SDS011;71117;52.352;4.808;2023-08-08T00:12:22;5.75;;;3.40;;
81703;SDS011;71117;52.352;4.808;2023-08-08T00:14:48;5.85;;;3.05;;
81703;SDS011;71117;52.352;4.808;2023-08-08T00:17:13;8.75;;;2.72;;
81703;SDS011;71117;52.352;4.808;2023-08-08T00:19:39;9.70;;;2.70;;
81703;SDS011;71117;52.352;4.808;2023-08-08T00:22:05;4.55;;;2.40;;
81703;SDS011;71117;52.352;4.808;2023-08-08T00:24:30;8.00;;;2.90;;
81703;SDS011;71117;52.352;4.808;2023-08-08T00:26:56;6.40;;;2.58;;
81703;SDS011;71117;52.352;4.808;2023-08-08T00:29:21;10.88;;;2.53;;
81703;SDS011;71117;52.352;4.808;2023-08-08T00:31:46;7.95;;;2.53;;
81703;SDS011;71117;52.352;4.808;2023-08-08T00:34:12;7.20;;;2.28;;
81703;SDS011;71117;52.352;4.808;2023-08-08T00:36:37;9.18;;;2.67;;
81703;SDS011;71117;52.352;4.808;2023-08-08T00:39:02;6.00;;;2.30;;
81703;SDS011;71117;52.352;4.808;2023-08-08T00:41:28;4.93;;;2.30;;
81703;SDS011;71117;52.352;4.808;2023-08-08T00:43:53;6.97;;;2.63;;
81703;SDS011;71117;52.352;4.808;2023-08-08T00:46:20;5.95;;;2.10;;
81703;SDS011;71117;52.352;4.808;2023-08-08T00:48:46;7.40;;;2.08;;
81703;SDS011;71117;52.352;4.808;2023-08-08T00:51:12;8.07;;;2.00;;
81703;SDS011;71117;52.352;4.808;2023-08-08T00:53:38;3.05;;;1.50;;
81703;SDS011;71117;52.352;4.808;2023-08-08T00:56:03;3.45;;;1.73;;
81703;SDS011;71117;52.352;4.808;2023-08-08T00:58:30;6.85;;;1.60;;
81703;SDS011;71117;52.352;4.808;2023-08-08T01:00:55;5.88;;;1.48;;
81703;SDS011;71117;52.352;4.808;2023-08-08T01:03:22;3.45;;;1.80;;
81703;SDS011;71117;52.352;4.808;2023-08-08T01:05:51;5.93;;;1.92;;
81703;SDS011;71117;52.352;4.808;2023-08-08T01:08:27;3.13;;;1.50;;
81703;SDS011;71117;52.352;4.808;2023-08-08T01:11:00;7.93;;;1.85;;
81703;SDS011;71117;52.352;4.808;2023-08-08T01:13:26;3.17;;;1.35;;
81703;SDS011;71117;52.352;4.808;2023-08-08T01:15:55;2.92;;;1.30;;
81703;SDS011;71117;52.352;4.808;2023-08-08T01:18:22;3.85;;;1.45;;
81703;SDS011;71117;52.352;4.808;2023-08-08T01:20:48;3.60;;;1.40;;
81703;SDS011;71117;52.352;4.808;2023-08-08T01:23:28;4.90;;;1.20;;
81703;SDS011;71117;52.352;4.808;2023-08-08T01:25:58;2.70;;;1.20;;
81703;SDS011;71117;52.352;4.808;2023-08-08T01:28:24;3.40;;;1.33;;
81703;SDS011;71117;52.352;4.808;2023-08-08T01:30:51;1.75;;;1.00;;
81703;SDS011;71117;52.352;4.808;2023-08-08T01:33:17;3.45;;;1.33;;
81703;SDS011;71117;52.352;4.808;2023-08-08T01:35:47;3.28;;;0.95;;
81703;SDS011;71117;52.352;4.808;2023-08-08T01:38:23;4.80;;;1.08;;
81703;SDS011;71117;52.352;4.808;2023-08-08T01:40:53;2.15;;;0.80;;
81703;SDS011;71117;52.352;4.808;2023-08-08T01:43:21;4.85;;;1.20;;
81703;SDS011;71117;52.352;4.808;2023-08-08T01:45:48;3.45;;;1.08;;
81703;SDS011;71117;52.352;4.808;2023-08-08T01:48:14;3.70;;;0.70;;
81703;SDS011;71117;52.352;4.808;2023-08-08T01:50:39;5.95;;;1.05;;
81703;SDS011;71117;52.352;4.808;2023-08-08T01:53:04;5.30;;;1.02;;
81703;SDS011;71117;52.352;4.808;2023-08-08T01:55:30;4.72;;;0.90;;
81703;SDS011;71117;52.352;4.808;2023-08-08T01:57:56;3.10;;;0.73;;
81703;SDS011;71117;52.352;4.808;2023-08-08T02:00:21;4.13;;;1.20;;
81703;SDS011;71117;52.352;4.808;2023-08-08T02:02:47;5.10;;;1.27;;
81703;SDS011;71117;52.352;4.808;2023-08-08T02:05:12;3.60;;;0.98;;
81703;SDS011;71117;52.352;4.808;2023-08-08T02:07:38;3.90;;;1.70;;
81703;SDS011;71117;52.352;4.808;2023-08-08T02:10:03;3.17;;;0.88;;
81703;SDS011;71117;52.352;4.808;2023-08-08T02:12:29;3.05;;;0.90;;
81703;SDS011;71117;52.352;4.808;2023-08-08T02:14:55;4.05;;;1.58;;
81703;SDS011;71117;52.352;4.808;2023-08-08T02:17:21;6.60;;;1.13;;
81703;SDS011;71117;52.352;4.808;2023-08-08T02:19:46;5.68;;;1.00;;
81703;SDS011;71117;52.352;4.808;2023-08-08T02:22:11;2.65;;;0.93;;
81703;SDS011;71117;52.352;4.808;2023-08-08T02:24:37;8.32;;;1.50;;
81703;SDS011;71117;52.352;4.808;2023-08-08T02:27:02;4.55;;;1.02;;
81703;SDS011;71117;52.352;4.808;2023-08-08T02:29:28;1.65;;;0.80;;
81703;SDS011;71117;52.352;4.808;2023-08-08T02:31:53;4.47;;;0.90;;
81703;SDS011;71117;52.352;4.808;2023-08-08T02:34:18;6.15;;;1.00;;
81703;SDS011;71117;52.352;4.808;2023-08-08T02:36:44;3.55;;;0.73;;
81703;SDS011;71117;52.352;4.808;2023-08-08T02:39:09;4.30;;;1.25;;
81703;SDS011;71117;52.352;4.808;2023-08-08T02:41:34;3.08;;;0.98;;
81703;SDS011;71117;52.352;4.808;2023-08-08T02:44:00;7.70;;;1.20;;
81703;SDS011;71117;52.352;4.808;2023-08-08T02:46:25;2.05;;;0.85;;
81703;SDS011;71117;52.352;4.808;2023-08-08T02:48:50;8.85;;;1.25;;
81703;SDS011;71117;52.352;4.808;2023-08-08T02:51:16;2.47;;;0.95;;
81703;SDS011;71117;52.352;4.808;2023-08-08T02:53:41;4.28;;;0.95;;
81703;SDS011;71117;52.352;4.808;2023-08-08T02:56:06;4.07;;;0.70;;
81703;SDS011;71117;52.352;4.808;2023-08-08T02:58:32;4.90;;;0.90;;
81703;SDS011;71117;52.352;4.808;2023-08-08T03:01:00;6.38;;;1.02;;
81703;SDS011;71117;52.352;4.808;2023-08-08T03:03:25;4.18;;;0.95;;
81703;SDS011;71117;52.352;4.808;2023-08-08T03:05:51;4.63;;;0.80;;
81703;SDS011;71117;52.352;4.808;2023-08-08T03:08:16;2.90;;;0.75;;
81703;SDS011;71117;52.352;4.808;2023-08-08T03:10:41;7.15;;;0.95;;
81703;SDS011;71117;52.352;4.808;2023-08-08T03:13:07;2.88;;;0.70;;
81703;SDS011;71117;52.352;4.808;2023-08-08T03:15:32;5.95;;;0.90;;
81703;SDS011;71117;52.352;4.808;2023-08-08T03:17:57;2.60;;;0.70;;
81703;SDS011;71117;52.352;4.808;2023-08-08T03:20:23;8.27;;;1.35;;
81703;SDS011;71117;52.352;4.808;2023-08-08T03:22:48;5.18;;;1.05;;
81703;SDS011;71117;52.352;4.808;2023-08-08T03:25:13;2.45;;;1.02;;
81703;SDS011;71117;52.352;4.808;2023-08-08T03:27:39;2.20;;;0.85;;
81703;SDS011;71117;52.352;4.808;2023-08-08T03:30:05;2.53;;;0.80;;
81703;SDS011;71117;52.352;4.808;2023-08-08T03:32:31;2.80;;;1.23;;
81703;SDS011;71117;52.352;4.808;2023-08-08T03:34:56;3.85;;;0.90;;
81703;SDS011;71117;52.352;4.808;2023-08-08T03:37:21;5.43;;;1.23;;
81703;SDS011;71117;52.352;4.808;2023-08-08T03:39:47;1.85;;;1.00;;
81703;SDS011;71117;52.352;4.808;2023-08-08T03:42:12;3.72;;;0.80;;
81703;SDS011;71117;52.352;4.808;2023-08-08T03:44:37;3.10;;;0.80;;
81703;SDS011;71117;52.352;4.808;2023-08-08T03:47:03;9.63;;;1.73;;
81703;SDS011;71117;52.352;4.808;2023-08-08T03:49:28;3.55;;;0.90;;
81703;SDS011;71117;52.352;4.808;2023-08-08T03:51:54;10.90;;;2.20;;
81703;SDS011;71117;52.352;4.808;2023-08-08T03:54:19;2.83;;;1.08;;
81703;SDS011;71117;52.352;4.808;2023-08-08T03:56:44;3.58;;;0.77;;
81703;SDS011;71117;52.352;4.808;2023-08-08T03:59:10;2.28;;;0.98;;
81703;SDS011;71117;52.352;4.808;2023-08-08T04:01:35;3.25;;;0.80;;
81703;SDS011;71117;52.352;4.808;2023-08-08T04:04:03;2.92;;;0.77;;
81703;SDS011;71117;52.352;4.808;2023-08-08T04:06:29;5.88;;;0.90;;
81703;SDS011;71117;52.352;4.808;2023-08-08T04:08:54;4.05;;;0.80;;
81703;SDS011;71117;52.352;4.808;2023-08-08T04:11:19;3.90;;;0.75;;
81703;SDS011;71117;52.352;4.808;2023-08-08T04:13:45;3.25;;;1.13;;
81703;SDS011;71117;52.352;4.808;2023-08-08T04:16:10;4.57;;;1.00;;
81703;SDS011;71117;52.352;4.808;2023-08-08T04:18:35;4.30;;;1.10;;
81703;SDS011;71117;52.352;4.808;2023-08-08T04:21:01;6.15;;;1.35;;
81703;SDS011;71117;52.352;4.808;2023-08-08T04:23:26;2.88;;;1.00;;
81703;SDS011;71117;52.352;4.808;2023-08-08T04:25:52;5.38;;;1.20;;
81703;SDS011;71117;52.352;4.808;2023-08-08T04:28:18;2.58;;;1.05;;
81703;SDS011;71117;52.352;4.808;2023-08-08T04:30:43;2.25;;;0.98;;
81703;SDS011;71117;52.352;4.808;2023-08-08T04:33:09;3.08;;;0.98;;
81703;SDS011;71117;52.352;4.808;2023-08-08T04:35:34;5.88;;;0.88;;
81703;SDS011;71117;52.352;4.808;2023-08-08T04:38:00;5.55;;;1.27;;
81703;SDS011;71117;52.352;4.808;2023-08-08T04:40:25;5.90;;;1.30;;
81703;SDS011;71117;52.352;4.808;2023-08-08T04:42:51;3.90;;;1.08;;
81703;SDS011;71117;52.352;4.808;2023-08-08T04:45:17;7.18;;;1.20;;
81703;SDS011;71117;52.352;4.808;2023-08-08T04:47:42;5.10;;;1.00;;
81703;SDS011;71117;52.352;4.808;2023-08-08T04:50:07;3.83;;;0.93;;
81703;SDS011;71117;52.352;4.808;2023-08-08T04:52:33;3.42;;;0.98;;
81703;SDS011;71117;52.352;4.808;2023-08-08T04:54:58;5.47;;;1.08;;
81703;SDS011;71117;52.352;4.808;2023-08-08T04:57:24;4.00;;;0.90;;
81703;SDS011;71117;52.352;4.808;2023-08-08T04:59:49;6.07;;;1.15;;
81703;SDS011;71117;52.352;4.808;2023-08-08T05:02:14;3.20;;;0.90;;
81703;SDS011;71117;52.352;4.808;2023-08-08T05:04:40;9.13;;;1.10;;
81703;SDS011;71117;52.352;4.808;2023-08-08T05:07:05;4.25;;;1.35;;
81703;SDS011;71117;52.352;4.808;2023-08-08T05:09:31;5.15;;;1.35;;
81703;SDS011;71117;52.352;4.808;2023-08-08T05:11:56;5.30;;;1.00;;
81703;SDS011;71117;52.352;4.808;2023-08-08T05:14:22;2.95;;;1.08;;
81703;SDS011;71117;52.352;4.808;2023-08-08T05:16:47;2.30;;;0.73;;
81703;SDS011;71117;52.352;4.808;2023-08-08T05:19:12;4.20;;;0.98;;
81703;SDS011;71117;52.352;4.808;2023-08-08T05:21:38;3.13;;;0.70;;
81703;SDS011;71117;52.352;4.808;2023-08-08T05:24:04;4.65;;;1.35;;
81703;SDS011;71117;52.352;4.808;2023-08-08T05:26:29;3.72;;;0.70;;
81703;SDS011;71117;52.352;4.808;2023-08-08T05:28:54;4.82;;;0.90;;
81703;SDS011;71117;52.352;4.808;2023-08-08T05:31:20;2.78;;;0.70;;
81703;SDS011;71117;52.352;4.808;2023-08-08T05:33:45;6.00;;;1.00;;
81703;SDS011;71117;52.352;4.808;2023-08-08T05:36:13;3.05;;;0.90;;
81703;SDS011;71117;52.352;4.808;2023-08-08T05:38:38;2.47;;;0.90;;
81703;SDS011;71117;52.352;4.808;2023-08-08T05:41:03;4.57;;;0.73;;
81703;SDS011;71117;52.352;4.808;2023-08-08T05:43:29;4.18;;;1.08;;
81703;SDS011;71117;52.352;4.808;2023-08-08T05:45:54;3.28;;;0.98;;
81703;SDS011;71117;52.352;4.808;2023-08-08T05:48:19;3.83;;;0.98;;
81703;SDS011;71117;52.352;4.808;2023-08-08T05:50:45;2.83;;;0.98;;
81703;SDS011;71117;52.352;4.808;2023-08-08T05:53:10;2.97;;;0.77;;
81703;SDS011;71117;52.352;4.808;2023-08-08T05:55:35;3.25;;;0.60;;
81703;SDS011;71117;52.352;4.808;2023-08-08T05:58:01;5.80;;;1.50;;
81703;SDS011;71117;52.352;4.808;2023-08-08T06:00:26;1.75;;;0.70;;
81703;SDS011;71117;52.352;4.808;2023-08-08T06:02:51;2.92;;;0.60;;
81703;SDS011;71117;52.352;4.808;2023-08-08T06:05:17;6.65;;;0.98;;
81703;SDS011;71117;52.352;4.808;2023-08-08T06:07:42;3.65;;;1.20;;
81703;SDS011;71117;52.352;4.808;2023-08-08T06:10:09;2.72;;;0.65;;
81703;SDS011;71117;52.352;4.808;2023-08-08T06:12:35;5.10;;;0.68;;
81703;SDS011;71117;52.352;4.808;2023-08-08T06:15:00;3.50;;;0.80;;
81703;SDS011;71117;52.352;4.808;2023-08-08T06:17:26;3.65;;;0.60;;
81703;SDS011;71117;52.352;4.808;2023-08-08T06:19:51;4.30;;;1.02;;
81703;SDS011;71117;52.352;4.808;2023-08-08T06:22:18;4.85;;;0.63;;
81703;SDS011;71117;52.352;4.808;2023-08-08T06:24:44;4.40;;;0.52;;
81703;SDS011;71117;52.352;4.808;2023-08-08T06:27:09;2.65;;;0.70;;
81703;SDS011;71117;52.352;4.808;2023-08-08T06:29:35;2.80;;;0.32;;
81703;SDS011;71117;52.352;4.808;2023-08-08T06:32:00;2.78;;;0.50;;
81703;SDS011;71117;52.352;4.808;2023-08-08T06:34:26;4.50;;;0.68;;
81703;SDS011;71117;52.352;4.808;2023-08-08T06:36:51;1.27;;;0.47;;
81703;SDS011;71117;52.352;4.808;2023-08-08T06:39:16;4.32;;;1.08;;
81703;SDS011;71117;52.352;4.808;2023-08-08T06:41:44;2.13;;;0.70;;
81703;SDS011;71117;52.352;4.808;2023-08-08T06:44:09;4.22;;;0.63;;
81703;SDS011;71117;52.352;4.808;2023-08-08T06:46:35;6.60;;;0.80;;
81703;SDS011;71117;52.352;4.808;2023-08-08T06:49:00;5.05;;;1.00;;
81703;SDS011;71117;52.352;4.808;2023-08-08T06:51:26;2.53;;;0.55;;
81703;SDS011;71117;52.352;4.808;2023-08-08T06:53:51;1.27;;;0.52;;
81703;SDS011;71117;52.352;4.808;2023-08-08T06:56:17;3.90;;;0.70;;
81703;SDS011;71117;52.352;4.808;2023-08-08T06:58:43;1.90;;;0.55;;
81703;SDS011;71117;52.352;4.808;2023-08-08T07:01:08;4.20;;;1.02;;
81703;SDS011;71117;52.352;4.808;2023-08-08T07:03:34;4.85;;;0.60;;
81703;SDS011;71117;52.352;4.808;2023-08-08T07:06:00;1.85;;;0.50;;
81703;SDS011;71117;52.352;4.808;2023-08-08T07:08:25;1.83;;;0.50;;
81703;SDS011;71117;52.352;4.808;2023-08-08T07:10:51;3.63;;;0.80;;
81703;SDS011;71117;52.352;4.808;2023-08-08T07:13:16;2.00;;;0.70;;
81703;SDS011;71117;52.352;4.808;2023-08-08T07:15:41;5.15;;;0.80;;
81703;SDS011;71117;52.352;4.808;2023-08-08T07:18:07;3.40;;;0.68;;
81703;SDS011;71117;52.352;4.808;2023-08-08T07:20:32;4.35;;;0.90;;
81703;SDS011;71117;52.352;4.808;2023-08-08T07:22:58;2.05;;;0.52;;
81703;SDS011;71117;52.352;4.808;2023-08-08T07:25:25;2.83;;;0.73;;
81703;SDS011;71117;52.352;4.808;2023-08-08T07:27:50;4.32;;;0.85;;
81703;SDS011;71117;52.352;4.808;2023-08-08T07:30:16;2.42;;;0.70;;
81703;SDS011;71117;52.352;4.808;2023-08-08T07:32:41;2.75;;;0.50;;
81703;SDS011;71117;52.352;4.808;2023-08-08T07:35:07;4.18;;;0.50;;
81703;SDS011;71117;52.352;4.808;2023-08-08T07:37:33;4.50;;;0.73;;
81703;SDS011;71117;52.352;4.808;2023-08-08T07:39:59;5.10;;;0.80;;
81703;SDS011;71117;52.352;4.808;2023-08-08T07:42:25;1.73;;;0.70;;
81703;SDS011;71117;52.352;4.808;2023-08-08T07:44:50;5.60;;;0.60;;
81703;SDS011;71117;52.352;4.808;2023-08-08T07:47:15;1.55;;;0.77;;
81703;SDS011;71117;52.352;4.808;2023-08-08T07:49:41;3.33;;;0.70;;
81703;SDS011;71117;52.352;4.808;2023-08-08T07:52:06;4.18;;;0.80;;
81703;SDS011;71117;52.352;4.808;2023-08-08T07:54:32;2.47;;;0.52;;
81703;SDS011;71117;52.352;4.808;2023-08-08T07:56:58;3.05;;;0.43;;
81703;SDS011;71117;52.352;4.808;2023-08-08T07:59:23;3.40;;;0.70;;
81703;SDS011;71117;52.352;4.808;2023-08-08T08:01:49;2.72;;;0.60;;
81703;SDS011;71117;52.352;4.808;2023-08-08T08:04:14;3.63;;;0.50;;
81703;SDS011;71117;52.352;4.808;2023-08-08T08:06:40;1.67;;;0.50;;
81703;SDS011;71117;52.352;4.808;2023-08-08T08:09:05;5.07;;;0.60;;
81703;SDS011;71117;52.352;4.808;2023-08-08T08:11:30;3.42;;;0.63;;
81703;SDS011;71117;52.352;4.808;2023-08-08T08:13:56;1.20;;;0.57;;
81703;SDS011;71117;52.352;4.808;2023-08-08T08:16:21;2.08;;;0.60;;
81703;SDS011;71117;52.352;4.808;2023-08-08T08:18:48;1.02;;;0.35;;
81703;SDS011;71117;52.352;4.808;2023-08-08T08:21:14;2.63;;;0.70;;
81703;SDS011;71117;52.352;4.808;2023-08-08T08:23:39;2.22;;;0.55;;
81703;SDS011;71117;52.352;4.808;2023-08-08T08:26:05;2.78;;;0.60;;
81703;SDS011;71117;52.352;4.808;2023-08-08T08:28:31;2.58;;;0.40;;
81703;SDS011;71117;52.352;4.808;2023-08-08T08:30:56;0.90;;;0.40;;
81703;SDS011;71117;52.352;4.808;2023-08-08T08:33:21;1.38;;;0.40;;
81703;SDS011;71117;52.352;4.808;2023-08-08T08:35:47;2.78;;;0.70;;
81703;SDS011;71117;52.352;4.808;2023-08-08T08:38:12;1.55;;;0.55;;
81703;SDS011;71117;52.352;4.808;2023-08-08T08:40:39;1.17;;;0.38;;
81703;SDS011;71117;52.352;4.808;2023-08-08T08:43:07;1.48;;;0.40;;
81703;SDS011;71117;52.352;4.808;2023-08-08T08:45:37;1.45;;;0.73;;
81703;SDS011;71117;52.352;4.808;2023-08-08T08:48:08;1.00;;;0.40;;
81703;SDS011;71117;52.352;4.808;2023-08-08T08:50:36;2.10;;;0.68;;
81703;SDS011;71117;52.352;4.808;2023-08-08T08:53:02;2.38;;;0.60;;
81703;SDS011;71117;52.352;4.808;2023-08-08T08:55:29;2.00;;;0.40;;
81703;SDS011;71117;52.352;4.808;2023-08-08T08:57:55;3.80;;;0.85;;
81703;SDS011;71117;52.352;4.808;2023-08-08T09:00:20;1.90;;;0.60;;
81703;SDS011;71117;52.352;4.808;2023-08-08T09:02:46;1.52;;;0.40;;
81703;SDS011;71117;52.352;4.808;2023-08-08T09:05:12;1.15;;;0.40;;
81703;SDS011;71117;52.352;4.808;2023-08-08T09:07:38;3.72;;;0.60;;
81703;SDS011;71117;52.352;4.808;2023-08-08T09:10:04;3.03;;;0.60;;
81703;SDS011;71117;52.352;4.808;2023-08-08T09:12:33;1.83;;;0.52;;
81703;SDS011;71117;52.352;4.808;2023-08-08T09:14:58;2.70;;;0.70;;
81703;SDS011;71117;52.352;4.808;2023-08-08T09:17:27;3.60;;;0.52;;
81703;SDS011;71117;52.352;4.808;2023-08-08T09:19:53;2.92;;;0.52;;
81703;SDS011;71117;52.352;4.808;2023-08-08T09:22:20;2.20;;;0.55;;
81703;SDS011;71117;52.352;4.808;2023-08-08T09:24:45;1.90;;;0.70;;
81703;SDS011;71117;52.352;4.808;2023-08-08T09:27:11;0.98;;;0.55;;
81703;SDS011;71117;52.352;4.808;2023-08-08T09:29:37;2.00;;;0.68;;
81703;SDS011;71117;52.352;4.808;2023-08-08T09:32:03;2.75;;;0.60;;
81703;SDS011;71117;52.352;4.808;2023-08-08T09:34:30;3.97;;;0.95;;
81703;SDS011;71117;52.352;4.808;2023-08-08T09:36:55;2.92;;;0.60;;
81703;SDS011;71117;52.352;4.808;2023-08-08T09:39:21;3.58;;;0.73;;
81703;SDS011;71117;52.352;4.808;2023-08-08T09:41:46;1.40;;;0.55;;
81703;SDS011;71117;52.352;4.808;2023-08-08T09:44:12;1.75;;;0.60;;
81703;SDS011;71117;52.352;4.808;2023-08-08T09:46:38;2.25;;;0.63;;
81703;SDS011;71117;52.352;4.808;2023-08-08T09:49:04;5.25;;;1.05;;
81703;SDS011;71117;52.352;4.808;2023-08-08T09:51:30;4.40;;;0.95;;
81703;SDS011;71117;52.352;4.808;2023-08-08T09:53:56;5.03;;;0.75;;
81703;SDS011;71117;52.352;4.808;2023-08-08T09:56:23;2.45;;;1.08;;
81703;SDS011;71117;52.352;4.808;2023-08-08T09:58:49;3.50;;;0.93;;
81703;SDS011;71117;52.352;4.808;2023-08-08T10:01:16;4.93;;;1.40;;
81703;SDS011;71117;52.352;4.808;2023-08-08T10:03:41;3.47;;;0.88;;
81703;SDS011;71117;52.352;4.808;2023-08-08T10:06:10;1.80;;;0.70;;
81703;SDS011;71117;52.352;4.808;2023-08-08T10:08:35;1.70;;;0.80;;
81703;SDS011;71117;52.352;4.808;2023-08-08T10:11:01;4.72;;;0.80;;
81703;SDS011;71117;52.352;4.808;2023-08-08T10:13:27;2.45;;;0.70;;
81703;SDS011;71117;52.352;4.808;2023-08-08T10:15:53;8.93;;;1.10;;
81703;SDS011;71117;52.352;4.808;2023-08-08T10:18:22;3.75;;;1.08;;
81703;SDS011;71117;52.352;4.808;2023-08-08T10:20:50;1.58;;;0.73;;
81703;SDS011;71117;52.352;4.808;2023-08-08T10:23:16;2.28;;;0.50;;
81703;SDS011;71117;52.352;4.808;2023-08-08T10:25:46;2.70;;;0.80;;
81703;SDS011;71117;52.352;4.808;2023-08-08T10:28:20;4.20;;;0.77;;
81703;SDS011;71117;52.352;4.808;2023-08-08T10:33:19;1.95;;;0.60;;
81703;SDS011;71117;52.352;4.808;2023-08-08T10:36:02;2.05;;;0.60;;
81703;SDS011;71117;52.352;4.808;2023-08-08T10:38:48;1.48;;;0.50;;
81703;SDS011;71117;52.352;4.808;2023-08-08T10:41:19;4.97;;;0.80;;
81703;SDS011;71117;52.352;4.808;2023-08-08T10:43:47;4.28;;;0.90;;
81703;SDS011;71117;52.352;4.808;2023-08-08T10:46:21;4.20;;;0.70;;
81703;SDS011;71117;52.352;4.808;2023-08-08T10:48:57;4.82;;;0.88;;
81703;SDS011;71117;52.352;4.808;2023-08-08T10:51:46;3.20;;;1.05;;
81703;SDS011;71117;52.352;4.808;2023-08-08T10:54:19;1.70;;;0.63;;
81703;SDS011;71117;52.352;4.808;2023-08-08T10:56:53;1.92;;;0.98;;
81703;SDS011;71117;52.352;4.808;2023-08-08T10:59:41;3.40;;;0.90;;
81703;SDS011;71117;52.352;4.808;2023-08-08T11:02:05;3.03;;;0.80;;
81703;SDS011;71117;52.352;4.808;2023-08-08T11:04:32;2.63;;;0.55;;
81703;SDS011;71117;52.352;4.808;2023-08-08T11:06:59;6.63;;;0.80;;
81703;SDS011;71117;52.352;4.808;2023-08-08T11:09:25;1.77;;;0.60;;
81703;SDS011;71117;52.352;4.808;2023-08-08T11:11:51;8.15;;;1.02;;
81703;SDS011;71117;52.352;4.808;2023-08-08T11:14:18;3.63;;;0.93;;
81703;SDS011;71117;52.352;4.808;2023-08-08T11:16:46;3.78;;;0.60;;
81703;SDS011;71117;52.352;4.808;2023-08-08T11:19:12;2.50;;;0.70;;
81703;SDS011;71117;52.352;4.808;2023-08-08T11:21:42;2.72;;;0.90;;
81703;SDS011;71117;52.352;4.808;2023-08-08T11:24:09;3.80;;;0.80;;
81703;SDS011;71117;52.352;4.808;2023-08-08T11:26:35;5.88;;;0.80;;
81703;SDS011;71117;52.352;4.808;2023-08-08T11:29:02;2.92;;;0.65;;
81703;SDS011;71117;52.352;4.808;2023-08-08T11:31:29;5.07;;;0.88;;
81703;SDS011;71117;52.352;4.808;2023-08-08T11:33:55;5.20;;;1.23;;
81703;SDS011;71117;52.352;4.808;2023-08-08T11:36:21;2.00;;;0.77;;
81703;SDS011;71117;52.352;4.808;2023-08-08T11:38:49;1.77;;;0.80;;
81703;SDS011;71117;52.352;4.808;2023-08-08T11:41:16;2.70;;;1.10;;
81703;SDS011;71117;52.352;4.808;2023-08-08T11:43:45;4.30;;;0.85;;
81703;SDS011;71117;52.352;4.808;2023-08-08T11:46:14;3.92;;;0.63;;
81703;SDS011;71117;52.352;4.808;2023-08-08T11:48:40;2.67;;;0.98;;
81703;SDS011;71117;52.352;4.808;2023-08-08T11:51:06;6.68;;;0.63;;
81703;SDS011;71117;52.352;4.808;2023-08-08T11:53:34;4.28;;;0.80;;
81703;SDS011;71117;52.352;4.808;2023-08-08T11:56:03;3.13;;;0.60;;
81703;SDS011;71117;52.352;4.808;2023-08-08T11:58:29;2.03;;;0.50;;
81703;SDS011;71117;52.352;4.808;2023-08-08T12:00:55;1.55;;;0.47;;
81703;SDS011;71117;52.352;4.808;2023-08-08T12:03:22;0.95;;;0.50;;
81703;SDS011;71117;52.352;4.808;2023-08-08T12:05:49;1.50;;;0.60;;
81703;SDS011;71117;52.352;4.808;2023-08-08T12:08:19;2.60;;;0.70;;
81703;SDS011;71117;52.352;4.808;2023-08-08T12:10:48;2.55;;;0.70;;
81703;SDS011;71117;52.352;4.808;2023-08-08T12:13:19;4.07;;;0.70;;
81703;SDS011;71117;52.352;4.808;2023-08-08T12:15:46;1.80;;;0.57;;
81703;SDS011;71117;52.352;4.808;2023-08-08T12:18:11;1.83;;;0.50;;
81703;SDS011;71117;52.352;4.808;2023-08-08T12:20:37;1.40;;;0.57;;
81703;SDS011;71117;52.352;4.808;2023-08-08T12:23:02;1.48;;;0.70;;
81703;SDS011;71117;52.352;4.808;2023-08-08T12:25:28;2.72;;;0.82;;
81703;SDS011;71117;52.352;4.808;2023-08-08T12:27:53;1.77;;;0.63;;
81703;SDS011;71117;52.352;4.808;2023-08-08T12:30:18;1.75;;;0.60;;
81703;SDS011;71117;52.352;4.808;2023-08-08T12:32:44;1.45;;;0.57;;
81703;SDS011;71117;52.352;4.808;2023-08-08T12:35:09;3.42;;;0.85;;
81703;SDS011;71117;52.352;4.808;2023-08-08T12:37:35;4.28;;;0.95;;
81703;SDS011;71117;52.352;4.808;2023-08-08T12:40:00;1.50;;;0.80;;
81703;SDS011;71117;52.352;4.808;2023-08-08T12:42:27;1.95;;;0.68;;
81703;SDS011;71117;52.352;4.808;2023-08-08T12:44:53;2.42;;;0.65;;
81703;SDS011;71117;52.352;4.808;2023-08-08T12:47:18;1.90;;;0.80;;
81703;SDS011;71117;52.352;4.808;2023-08-08T12:49:45;2.53;;;0.70;;
81703;SDS011;71117;52.352;4.808;2023-08-08T12:52:11;2.97;;;0.63;;
81703;SDS011;71117;52.352;4.808;2023-08-08T12:54:36;4.38;;;1.00;;
81703;SDS011;71117;52.352;4.808;2023-08-08T12:57:02;3.58;;;0.90;;
81703;SDS011;71117;52.352;4.808;2023-08-08T12:59:27;2.28;;;0.63;;
81703;SDS011;71117;52.352;4.808;2023-08-08T13:01:53;1.83;;;0.80;;
81703;SDS011;71117;52.352;4.808;2023-08-08T13:04:18;4.10;;;0.68;;
81703;SDS011;71117;52.352;4.808;2023-08-08T13:06:44;3.25;;;0.70;;
81703;SDS011;71117;52.352;4.808;2023-08-08T13:09:10;1.95;;;0.80;;
81703;SDS011;71117;52.352;4.808;2023-08-08T13:11:35;3.17;;;0.93;;
81703;SDS011;71117;52.352;4.808;2023-08-08T13:14:01;3.65;;;0.70;;
81703;SDS011;71117;52.352;4.808;2023-08-08T13:16:26;3.72;;;0.70;;
81703;SDS011;71117;52.352;4.808;2023-08-08T13:18:51;5.18;;;0.90;;
81703;SDS011;71117;52.352;4.808;2023-08-08T13:21:17;3.38;;;0.80;;
81703;SDS011;71117;52.352;4.808;2023-08-08T13:23:42;2.53;;;1.23;;
81703;SDS011;71117;52.352;4.808;2023-08-08T13:26:08;2.50;;;0.60;;
81703;SDS011;71117;52.352;4.808;2023-08-08T13:28:33;5.47;;;1.05;;
81703;SDS011;71117;52.352;4.808;2023-08-08T13:30:58;3.72;;;0.80;;
81703;SDS011;71117;52.352;4.808;2023-08-08T13:33:24;1.98;;;0.63;;
81703;SDS011;71117;52.352;4.808;2023-08-08T13:35:49;6.15;;;1.05;;
81703;SDS011;71117;52.352;4.808;2023-08-08T13:38:14;3.90;;;0.80;;
81703;SDS011;71117;52.352;4.808;2023-08-08T13:40:40;3.58;;;0.80;;
81703;SDS011;71117;52.352;4.808;2023-08-08T13:43:06;2.03;;;0.63;;
81703;SDS011;71117;52.352;4.808;2023-08-08T13:45:32;2.35;;;0.68;;
81703;SDS011;71117;52.352;4.808;2023-08-08T13:47:57;2.25;;;1.20;;
81703;SDS011;71117;52.352;4.808;2023-08-08T13:50:22;3.20;;;0.85;;
81703;SDS011;71117;52.352;4.808;2023-08-08T13:52:48;5.03;;;0.95;;
81703;SDS011;71117;52.352;4.808;2023-08-08T13:55:13;3.33;;;0.88;;
81703;SDS011;71117;52.352;4.808;2023-08-08T13:57:38;3.40;;;0.90;;
81703;SDS011;71117;52.352;4.808;2023-08-08T14:00:04;5.72;;;0.98;;
81703;SDS011;71117;52.352;4.808;2023-08-08T14:02:31;3.17;;;0.80;;
81703;SDS011;71117;52.352;4.808;2023-08-08T14:04:57;2.38;;;0.95;;
81703;SDS011;71117;52.352;4.808;2023-08-08T14:07:22;1.88;;;0.80;;
81703;SDS011;71117;52.352;4.808;2023-08-08T14:09:47;5.85;;;0.98;;
81703;SDS011;71117;52.352;4.808;2023-08-08T14:12:13;4.65;;;1.20;;
81703;SDS011;71117;52.352;4.808;2023-08-08T14:14:38;2.80;;;1.00;;
81703;SDS011;71117;52.352;4.808;2023-08-08T14:17:04;2.95;;;1.00;;
81703;SDS011;71117;52.352;4.808;2023-08-08T14:19:29;2.67;;;0.77;;
81703;SDS011;71117;52.352;4.808;2023-08-08T14:21:54;2.67;;;1.00;;
81703;SDS011;71117;52.352;4.808;2023-08-08T14:24:20;3.22;;;1.33;;
81703;SDS011;71117;52.352;4.808;2023-08-08T14:26:45;2.10;;;0.80;;
81703;SDS011;71117;52.352;4.808;2023-08-08T14:29:12;3.83;;;1.20;;
81703;SDS011;71117;52.352;4.808;2023-08-08T14:31:38;2.22;;;0.95;;
81703;SDS011;71117;52.352;4.808;2023-08-08T14:34:03;4.82;;;1.35;;
81703;SDS011;71117;52.352;4.808;2023-08-08T14:36:29;2.55;;;0.95;;
81703;SDS011;71117;52.352;4.808;2023-08-08T14:38:54;6.10;;;1.35;;
81703;SDS011;71117;52.352;4.808;2023-08-08T14:41:20;4.80;;;0.82;;
81703;SDS011;71117;52.352;4.808;2023-08-08T14:43:45;3.97;;;0.85;;